Terminal Aerodrome Forecast
Issued by NWS Sterling, VA

Current Version | Previous Version | Graphics & Text | Print | Product List | Glossary On
Versions: 1 2 3 4 5 6 7 8 9 10 11 12 13 14 15 16 17 18 19 20 21 22 23 24 25
000
FTUS41 KLWX 241700
TAFDCA
TAF
KDCA 241739Z 2418/2518 32011G18KT P6SM BKN010 OVC035
      TEMPO 2418/2420 5SM -RA
     FM242000 30010G18KT P6SM SCT025 BKN120
     FM250200 28007KT P6SM SCT250
     FM250800 24005KT P6SM BKN150=

USA.gov is the U.S. government's official web portal to all federal, state and local government web resources and services.